Time;durP1;ratioP1;P1;durP2;ratioP2;P2;SDS_P1;SDS_P2;PMS_P1;PMS_P2;Temp;Humidity;BMP_temperature;BMP_pressure;BME280_temperature;BME280_humidity;BME280_pressure;Samples;Min_cycle;Max_cycle;Signal;HPM_P1;HPM_P2
2023/09/01 00:01:50;;;;;;;;;;;14.90;99.90;;;;;;5021413;28;19933;-64
2023/09/01 00:04:17;;;;;;;;;;;14.90;99.90;;;;;;5022393;28;20389;-65
2023/09/01 00:06:47;;;;;;;;;;;14.80;99.90;;;;;;5022681;28;20411;-65
2023/09/01 00:09:14;;;;;;;;;;;14.80;99.90;;;;;;5022656;28;19974;-64
2023/09/01 00:11:42;;;;;;;;;;;14.80;99.90;;;;;;5019951;28;19937;-64
2023/09/01 00:14:10;;;;;;;;;;;14.80;99.90;;;;;;5022619;28;19933;-64
2023/09/01 00:16:38;;;;;;;;;;;14.70;99.90;;;;;;5022383;28;19991;-64
2023/09/01 00:19:06;;;;;;;;;;;14.70;99.90;;;;;;5022123;28;20553;-65
2023/09/01 00:21:33;;;;;;;;;;;14.70;99.90;;;;;;5015600;28;20288;-64
2023/09/01 00:24:03;;;;;;;;;;;14.80;99.90;;;;;;5025470;28;19925;-67
2023/09/01 00:26:31;;;;;;;;;;;15.00;99.90;;;;;;5027468;28;20697;-67
2023/09/01 00:28:59;;;;;;;;;;;15.60;99.90;;;;;;5028812;28;19932;-67
2023/09/01 00:31:27;;;;;;;;;;;15.80;99.90;;;;;;5028971;28;19925;-66
2023/09/01 00:33:54;;;;;;;;;;;16.00;99.90;;;;;;5032197;28;20006;-67
2023/09/01 00:36:22;;;;;;;;;;;15.90;99.90;;;;;;5035368;28;19925;-67
2023/09/01 00:38:50;;;;;;;;;;;15.90;99.90;;;;;;5033511;28;19932;-67
2023/09/01 00:41:19;;;;;;;;;;;16.10;99.90;;;;;;5041042;28;20063;-67
2023/09/01 00:43:47;;;;;;;;;;;16.30;99.90;;;;;;5035329;28;19925;-66
2023/09/01 00:46:15;;;;;;;;;;;16.50;99.90;;;;;;5043402;28;19936;-66
2023/09/01 00:48:43;;;;;;;;;;;16.80;99.90;;;;;;5035134;28;20289;-68
2023/09/01 00:51:11;;;;;;;;;;;16.90;99.90;;;;;;5035527;28;19925;-67
2023/09/01 00:53:38;;;;;;;;;;;16.90;99.90;;;;;;5037558;28;19925;-68
2023/09/01 00:56:07;;;;;;;;;;;17.10;99.90;;;;;;5030873;28;20024;-68
2023/09/01 00:58:36;;;;;;;;;;;17.10;99.90;;;;;;5034256;28;19925;-67
2023/09/01 01:01:04;;;;;;;;;;;17.10;99.90;;;;;;5034963;28;19929;-68
2023/09/01 01:03:33;;;;;;;;;;;17.40;99.90;;;;;;5034143;28;19947;-68
2023/09/01 01:06:24;;;;;;;;;;;17.30;99.90;;;;;;5041550;28;20387;-68
2023/09/01 01:08:56;;;;;;;;;;;17.30;99.90;;;;;;5023332;28;20388;-68
2023/09/01 01:11:28;;;;;;;;;;;17.30;99.90;;;;;;5037842;28;19979;-68
2023/09/01 01:13:59;;;;;;;;;;;17.30;99.90;;;;;;5033866;28;20438;-68
2023/09/01 01:16:28;;;;;;;;;;;17.10;99.90;;;;;;5025084;28;19925;-68
2023/09/01 01:18:59;;;;;;;;;;;16.90;99.90;;;;;;5030042;28;19977;-68
2023/09/01 01:21:31;;;;;;;;;;;16.90;99.90;;;;;;5042144;28;19925;-67
2023/09/01 01:24:00;;;;;;;;;;;17.00;99.90;;;;;;5020782;28;19929;-68
2023/09/01 01:26:28;;;;;;;;;;;17.10;99.90;;;;;;5032718;28;19925;-67
2023/09/01 01:28:55;;;;;;;;;;;17.30;99.90;;;;;;5035222;28;19925;-68
2023/09/01 01:31:23;;;;;;;;;;;17.40;99.90;;;;;;5037507;28;19932;-68
2023/09/01 01:33:53;;;;;;;;;;;17.30;99.90;;;;;;5040630;28;19929;-68
2023/09/01 01:36:26;;;;;;;;;;;17.60;99.90;;;;;;5041838;28;20063;-67
2023/09/01 01:38:58;;;;;;;;;;;17.50;99.90;;;;;;5032534;28;20359;-67
2023/09/01 01:41:32;;;;;;;;;;;17.40;99.90;;;;;;5025441;28;19925;-66
2023/09/01 01:44:01;;;;;;;;;;;17.60;99.90;;;;;;5033202;28;20403;-66
2023/09/01 01:46:29;;;;;;;;;;;17.80;99.90;;;;;;5025296;28;19925;-66
2023/09/01 01:48:57;;;;;;;;;;;17.60;99.90;;;;;;5033180;28;20777;-66
2023/09/01 01:51:25;;;;;;;;;;;17.40;99.90;;;;;;5032581;28;19933;-67
2023/09/01 01:53:52;;;;;;;;;;;17.30;99.90;;;;;;5032234;28;19925;-66
2023/09/01 01:56:20;;;;;;;;;;;17.20;99.90;;;;;;5031094;28;19995;-67
2023/09/01 01:58:49;;;;;;;;;;;17.20;99.90;;;;;;5028553;28;20419;-66
2023/09/01 02:01:17;;;;;;;;;;;16.90;99.90;;;;;;5023345;28;19979;-66
2023/09/01 02:03:45;;;;;;;;;;;17.00;99.90;;;;;;5032446;28;19925;-66
2023/09/01 02:06:13;;;;;;;;;;;17.10;99.90;;;;;;5042578;28;19925;-66
2023/09/01 02:08:41;;;;;;;;;;;16.70;99.90;;;;;;5047361;28;19929;-66
2023/09/01 02:11:08;;;;;;;;;;;16.80;99.90;;;;;;5032438;28;19940;-66
2023/09/01 02:13:36;;;;;;;;;;;17.00;99.90;;;;;;5036616;28;20307;-66
2023/09/01 02:16:05;;;;;;;;;;;17.40;99.90;;;;;;5027567;28;20404;-66
2023/09/01 02:18:34;;;;;;;;;;;17.50;99.90;;;;;;5040945;28;19931;-66
2023/09/01 02:21:01;;;;;;;;;;;17.60;99.90;;;;;;5034449;28;19932;-67
2023/09/01 02:23:29;;;;;;;;;;;17.40;99.90;;;;;;5029904;28;19933;-66
2023/09/01 02:25:57;;;;;;;;;;;17.50;99.90;;;;;;5040145;28;19929;-66
2023/09/01 02:28:25;;;;;;;;;;;17.60;99.90;;;;;;5023932;28;19925;-67
2023/09/01 02:30:53;;;;;;;;;;;17.50;99.90;;;;;;5033630;28;20328;-67
2023/09/01 02:33:22;;;;;;;;;;;17.70;99.90;;;;;;5032641;28;20039;-66
2023/09/01 02:35:50;;;;;;;;;;;17.70;99.90;;;;;;5036374;28;19925;-66
2023/09/01 02:38:18;;;;;;;;;;;17.70;99.90;;;;;;5030269;28;19979;-66
2023/09/01 02:40:45;;;;;;;;;;;17.80;99.90;;;;;;5032809;28;19928;-67
2023/09/01 02:43:13;;;;;;;;;;;17.80;99.90;;;;;;5028407;28;19929;-66
2023/09/01 02:45:41;;;;;;;;;;;18.00;99.90;;;;;;5031014;28;20306;-66
2023/09/01 02:48:09;;;;;;;;;;;17.80;99.90;;;;;;5035497;28;20020;-67
2023/09/01 02:50:38;;;;;;;;;;;17.70;99.90;;;;;;5031145;28;20380;-66
2023/09/01 02:53:06;;;;;;;;;;;17.70;99.90;;;;;;5038503;28;20395;-66
2023/09/01 02:55:33;;;;;;;;;;;17.80;99.90;;;;;;5044651;28;19928;-66
2023/09/01 02:58:01;;;;;;;;;;;17.70;99.90;;;;;;5030942;28;20307;-66
2023/09/01 03:00:29;;;;;;;;;;;17.70;99.90;;;;;;5031290;28;20016;-67
2023/09/01 03:02:57;;;;;;;;;;;17.80;99.90;;;;;;5027562;28;20030;-66
2023/09/01 03:05:25;;;;;;;;;;;17.70;99.90;;;;;;5028536;28;19925;-66
2023/09/01 03:07:54;;;;;;;;;;;17.80;99.90;;;;;;5028402;28;20016;-67
2023/09/01 03:10:22;;;;;;;;;;;17.70;99.90;;;;;;5039218;28;19940;-66
2023/09/01 03:12:50;;;;;;;;;;;17.70;99.90;;;;;;5033365;28;19969;-67
2023/09/01 03:15:18;;;;;;;;;;;17.80;99.90;;;;;;5029351;28;19988;-67
2023/09/01 03:17:46;;;;;;;;;;;17.70;99.90;;;;;;5041320;28;19955;-67
2023/09/01 03:20:14;;;;;;;;;;;17.80;99.90;;;;;;5038883;28;20020;-67
2023/09/01 03:22:42;;;;;;;;;;;17.80;99.90;;;;;;5043003;28;19929;-67
2023/09/01 03:25:11;;;;;;;;;;;17.90;99.90;;;;;;5042622;28;19929;-67
2023/09/01 03:27:39;;;;;;;;;;;18.00;99.90;;;;;;5031646;28;20312;-67
2023/09/01 03:30:07;;;;;;;;;;;17.90;99.90;;;;;;5034667;28;20419;-67
2023/09/01 03:32:35;;;;;;;;;;;17.80;99.90;;;;;;5029737;28;19925;-67
2023/09/01 03:35:03;;;;;;;;;;;17.80;99.90;;;;;;5030899;28;20382;-67
2023/09/01 03:37:31;;;;;;;;;;;17.80;99.90;;;;;;5029591;28;19933;-67
2023/09/01 03:39:59;;;;;;;;;;;17.90;99.90;;;;;;5015770;28;20418;-67
2023/09/01 03:42:28;;;;;;;;;;;18.00;99.90;;;;;;5023998;28;19932;-67
2023/09/01 03:44:56;;;;;;;;;;;18.00;99.90;;;;;;5026676;28;20419;-66
2023/09/01 03:47:23;;;;;;;;;;;18.00;99.90;;;;;;5031468;28;20431;-66
2023/09/01 03:49:51;;;;;;;;;;;17.90;99.90;;;;;;5027157;28;19937;-67
2023/09/01 03:52:19;;;;;;;;;;;18.10;99.90;;;;;;5026582;28;19929;-67
2023/09/01 03:54:47;;;;;;;;;;;18.10;99.90;;;;;;5023936;28;19925;-67
2023/09/01 03:57:15;;;;;;;;;;;18.10;99.90;;;;;;5024241;28;20504;-66
2023/09/01 03:59:44;;;;;;;;;;;18.10;99.90;;;;;;5020974;28;19925;-66
2023/09/01 04:02:12;;;;;;;;;;;18.00;99.90;;;;;;5019233;28;20286;-67
2023/09/01 04:04:40;;;;;;;;;;;17.90;99.90;;;;;;5014023;28;19961;-66
2023/09/01 04:07:09;;;;;;;;;;;17.80;99.90;;;;;;5016771;28;19934;-66
2023/09/01 04:09:37;;;;;;;;;;;17.90;99.90;;;;;;5029021;28;19925;-67
2023/09/01 04:12:05;;;;;;;;;;;17.80;99.90;;;;;;5029366;28;19930;-66
2023/09/01 04:14:33;;;;;;;;;;;17.80;99.90;;;;;;5029338;28;19925;-67
2023/09/01 04:17:04;;;;;;;;;;;17.70;99.90;;;;;;5034155;28;20461;-66
2023/09/01 04:19:32;;;;;;;;;;;17.70;99.90;;;;;;5039124;28;19924;-67
2023/09/01 04:21:59;;;;;;;;;;;17.80;99.90;;;;;;5023985;28;19925;-68
2023/09/01 04:24:27;;;;;;;;;;;17.70;99.90;;;;;;5033353;28;19932;-67
2023/09/01 04:26:58;;;;;;;;;;;17.80;99.90;;;;;;5037974;28;19925;-67
2023/09/01 04:29:26;;;;;;;;;;;17.80;99.90;;;;;;5046649;28;19925;-67
2023/09/01 04:31:54;;;;;;;;;;;17.80;99.90;;;;;;5044596;28;20137;-67
2023/09/01 04:34:23;;;;;;;;;;;17.90;99.90;;;;;;5033258;28;19933;-67
2023/09/01 04:36:51;;;;;;;;;;;17.90;99.90;;;;;;5031127;28;19932;-67
2023/09/01 04:39:18;;;;;;;;;;;18.10;99.90;;;;;;5036931;28;19964;-68
2023/09/01 04:41:46;;;;;;;;;;;18.10;99.90;;;;;;5039429;28;19933;-68
2023/09/01 04:44:14;;;;;;;;;;;18.00;99.90;;;;;;5030943;28;19933;-68
2023/09/01 04:46:42;;;;;;;;;;;18.10;99.90;;;;;;5032245;28;19947;-67
2023/09/01 04:49:10;;;;;;;;;;;18.10;99.90;;;;;;5035032;28;20268;-67
2023/09/01 04:51:39;;;;;;;;;;;18.20;99.90;;;;;;5028840;28;19925;-67
2023/09/01 04:54:07;;;;;;;;;;;18.10;99.90;;;;;;5023528;28;19934;-66
2023/09/01 04:56:35;;;;;;;;;;;18.10;99.90;;;;;;5033391;28;19929;-66
2023/09/01 04:59:03;;;;;;;;;;;18.10;99.90;;;;;;5034242;28;19979;-66
2023/09/01 05:01:31;;;;;;;;;;;18.00;99.90;;;;;;5029147;28;19929;-67
2023/09/01 05:03:59;;;;;;;;;;;18.10;99.90;;;;;;5023249;28;19932;-67
2023/09/01 05:06:27;;;;;;;;;;;18.10;99.90;;;;;;5022422;28;19933;-66
2023/09/01 05:08:56;;;;;;;;;;;17.90;99.90;;;;;;5022704;28;20450;-66
2023/09/01 05:11:24;;;;;;;;;;;17.50;99.90;;;;;;5021973;28;19937;-67
2023/09/01 05:13:52;;;;;;;;;;;17.60;99.90;;;;;;5021661;28;20422;-66
2023/09/01 05:16:20;;;;;;;;;;;17.70;99.90;;;;;;5023015;28;19929;-66
2023/09/01 05:18:48;;;;;;;;;;;17.80;99.90;;;;;;5023445;28;19929;-66
2023/09/01 05:21:16;;;;;;;;;;;17.70;99.90;;;;;;5020254;28;19959;-66
2023/09/01 05:23:44;;;;;;;;;;;17.70;99.90;;;;;;5023122;28;19933;-66
2023/09/01 05:26:13;;;;;;;;;;;17.90;99.90;;;;;;5022117;28;19953;-66
2023/09/01 05:28:41;;;;;;;;;;;18.00;99.90;;;;;;5022727;28;19933;-66
2023/09/01 05:31:09;;;;;;;;;;;18.00;99.90;;;;;;5020358;28;19938;-67
2023/09/01 05:33:37;;;;;;;;;;;18.10;99.90;;;;;;5021696;28;21264;-66
2023/09/01 05:36:05;;;;;;;;;;;18.10;99.90;;;;;;5023293;28;19933;-66
2023/09/01 05:38:33;;;;;;;;;;;18.00;99.90;;;;;;5023333;28;20400;-67
2023/09/01 05:41:02;;;;;;;;;;;17.70;99.90;;;;;;5022979;28;19951;-66
2023/09/01 05:43:31;;;;;;;;;;;17.50;99.90;;;;;;5024788;28;20418;-66
2023/09/01 05:45:59;;;;;;;;;;;17.40;99.90;;;;;;5023702;28;19940;-65
2023/09/01 05:48:27;;;;;;;;;;;17.40;99.90;;;;;;5022324;28;19929;-67
2023/09/01 05:50:55;;;;;;;;;;;17.30;99.90;;;;;;5020982;28;19956;-66
2023/09/01 05:53:23;;;;;;;;;;;17.40;99.90;;;;;;5021372;28;20404;-66
2023/09/01 05:55:51;;;;;;;;;;;17.60;99.90;;;;;;5021896;28;19930;-65
2023/09/01 05:58:44;;;;;;;;;;;17.70;99.90;;;;;;5023729;28;19929;-66
2023/09/01 06:01:13;;;;;;;;;;;17.80;99.90;;;;;;5019524;28;19941;-66
2023/09/01 06:03:41;;;;;;;;;;;17.80;99.90;;;;;;5020431;28;19959;-67
2023/09/01 06:06:09;;;;;;;;;;;17.90;99.90;;;;;;5021637;28;20039;-67
2023/09/01 06:08:37;;;;;;;;;;;18.10;99.90;;;;;;5054714;22;20277;-68
2023/09/01 06:11:05;;;;;;;;;;;18.20;99.90;;;;;;5035060;28;20340;-69
2023/09/01 06:13:33;;;;;;;;;;;18.10;99.90;;;;;;5046536;28;20443;-69
2023/09/01 06:16:02;;;;;;;;;;;17.80;99.90;;;;;;5038807;28;20363;-69
2023/09/01 06:18:31;;;;;;;;;;;17.60;99.90;;;;;;5041861;28;20418;-68
2023/09/01 06:20:59;;;;;;;;;;;17.40;99.90;;;;;;5032747;28;19979;-71
2023/09/01 06:23:27;;;;;;;;;;;17.20;99.90;;;;;;5032889;28;19933;-69
2023/09/01 06:25:55;;;;;;;;;;;17.00;99.90;;;;;;5032884;28;19925;-70
2023/09/01 06:28:23;;;;;;;;;;;16.90;99.90;;;;;;5032755;28;19932;-69
2023/09/01 06:30:51;;;;;;;;;;;16.80;99.90;;;;;;5032326;28;19928;-69
2023/09/01 06:33:19;;;;;;;;;;;16.70;99.90;;;;;;5032352;28;19929;-70
2023/09/01 06:35:48;;;;;;;;;;;16.60;99.90;;;;;;5032661;28;19929;-70
2023/09/01 06:38:16;;;;;;;;;;;16.50;99.90;;;;;;5040385;28;20307;-69
2023/09/01 06:40:44;;;;;;;;;;;16.60;99.90;;;;;;5032714;28;19983;-69
2023/09/01 06:43:32;;;;;;;;;;;16.60;99.90;;;;;;5032088;28;19925;-69
2023/09/01 06:45:59;;;;;;;;;;;16.60;99.90;;;;;;5027749;28;19995;-69
2023/09/01 06:48:29;;;;;;;;;;;16.50;99.90;;;;;;5032286;28;19926;-69
2023/09/01 06:50:59;;;;;;;;;;;16.50;99.90;;;;;;5032177;28;20367;-67
2023/09/01 06:53:27;;;;;;;;;;;16.40;99.90;;;;;;5032203;28;19999;-69
2023/09/01 06:55:55;;;;;;;;;;;16.40;99.90;;;;;;5032070;28;19956;-69
2023/09/01 06:58:22;;;;;;;;;;;16.40;99.90;;;;;;5031986;28;19925;-69
2023/09/01 07:00:51;;;;;;;;;;;16.40;99.90;;;;;;5032485;28;20400;-70
2023/09/01 07:03:19;;;;;;;;;;;16.40;99.90;;;;;;5029456;28;20407;-69
2023/09/01 07:06:06;;;;;;;;;;;16.40;99.90;;;;;;5032177;28;20204;-69
2023/09/01 07:08:35;;;;;;;;;;;16.40;99.90;;;;;;5039702;28;19928;-69
2023/09/01 07:11:04;;;;;;;;;;;16.50;99.90;;;;;;5031902;28;19968;-69
2023/09/01 07:13:31;;;;;;;;;;;16.50;99.90;;;;;;5031609;28;19926;-69
2023/09/01 07:15:59;;;;;;;;;;;16.40;99.90;;;;;;5032042;28;19926;-69
2023/09/01 07:18:28;;;;;;;;;;;16.40;99.90;;;;;;5025628;28;19925;-69
2023/09/01 07:20:58;;;;;;;;;;;16.50;99.90;;;;;;5023192;28;19936;-69
2023/09/01 07:23:25;;;;;;;;;;;16.50;99.90;;;;;;5031599;28;19929;-69
2023/09/01 07:25:55;;;;;;;;;;;16.50;99.90;;;;;;5031915;28;20277;-69
2023/09/01 07:28:23;;;;;;;;;;;16.50;99.90;;;;;;5031533;28;19925;-69
2023/09/01 07:30:51;;;;;;;;;;;16.50;99.90;;;;;;5031787;28;20314;-69
2023/09/01 07:33:19;;;;;;;;;;;16.60;99.90;;;;;;5031377;28;19933;-69
2023/09/01 07:35:47;;;;;;;;;;;16.60;99.90;;;;;;5030343;28;19932;-69
2023/09/01 07:38:15;;;;;;;;;;;16.60;99.90;;;;;;5039427;28;19936;-69
2023/09/01 07:40:44;;;;;;;;;;;16.60;99.90;;;;;;5023584;28;20427;-69
2023/09/01 07:43:15;;;;;;;;;;;16.50;99.90;;;;;;5031144;28;19925;-69
2023/09/01 07:45:43;;;;;;;;;;;16.50;99.90;;;;;;5031331;28;19925;-70
2023/09/01 07:48:11;;;;;;;;;;;16.50;99.90;;;;;;5031506;28;19929;-70
2023/09/01 07:50:49;;;;;;;;;;;16.60;99.90;;;;;;5023297;28;19925;-70
2023/09/01 07:53:17;;;;;;;;;;;16.60;99.90;;;;;;5026838;28;19933;-71
2023/09/01 07:55:45;;;;;;;;;;;16.60;99.90;;;;;;5031236;28;19957;-71
2023/09/01 07:58:14;;;;;;;;;;;16.70;99.90;;;;;;5031487;28;19931;-70
2023/09/01 08:00:42;;;;;;;;;;;16.70;99.90;;;;;;5031228;28;20393;-70
2023/09/01 08:03:11;;;;;;;;;;;16.70;99.90;;;;;;5027989;28;19932;-70
2023/09/01 08:05:41;;;;;;;;;;;16.90;99.90;;;;;;5030424;28;21154;-70
2023/09/01 08:08:12;;;;;;;;;;;16.90;99.90;;;;;;5037321;28;20023;-70
2023/09/01 08:10:41;;;;;;;;;;;17.00;99.90;;;;;;5023369;28;19959;-70
2023/09/01 08:13:08;;;;;;;;;;;17.10;99.90;;;;;;5031143;28;19929;-71
2023/09/01 08:15:38;;;;;;;;;;;17.10;99.90;;;;;;5031445;28;19932;-70
2023/09/01 08:18:05;;;;;;;;;;;17.20;99.90;;;;;;5030850;28;19933;-70
2023/09/01 08:20:33;;;;;;;;;;;17.20;99.90;;;;;;5031103;28;20388;-70
2023/09/01 08:23:01;;;;;;;;;;;17.20;99.90;;;;;;5030912;28;19925;-70
2023/09/01 08:25:29;;;;;;;;;;;17.20;99.90;;;;;;5031245;28;19933;-70
2023/09/01 08:27:57;;;;;;;;;;;17.30;99.90;;;;;;5027968;28;19925;-70
2023/09/01 08:30:26;;;;;;;;;;;17.30;99.90;;;;;;5031008;28;20307;-70
2023/09/01 08:32:55;;;;;;;;;;;17.30;99.90;;;;;;5031030;28;20388;-70
2023/09/01 08:35:23;;;;;;;;;;;17.40;99.90;;;;;;5030728;28;19932;-72
2023/09/01 08:37:51;;;;;;;;;;;17.40;99.90;;;;;;5034545;28;20509;-72
2023/09/01 08:40:19;;;;;;;;;;;17.50;99.90;;;;;;5035179;28;20423;-70
2023/09/01 08:42:48;;;;;;;;;;;17.50;99.90;;;;;;5029913;28;19925;-70
2023/09/01 08:45:16;;;;;;;;;;;17.40;99.90;;;;;;5031217;28;19929;-70
2023/09/01 08:47:45;;;;;;;;;;;17.50;99.90;;;;;;5030814;28;22841;-70
2023/09/01 08:50:14;;;;;;;;;;;17.60;99.90;;;;;;5030599;28;19956;-70
2023/09/01 08:52:44;;;;;;;;;;;17.60;99.90;;;;;;5030520;28;19984;-70
2023/09/01 08:55:13;;;;;;;;;;;17.60;99.90;;;;;;5030903;28;19929;-70
2023/09/01 08:57:40;;;;;;;;;;;17.60;99.90;;;;;;5030657;28;19932;-70
2023/09/01 09:00:09;;;;;;;;;;;17.70;99.90;;;;;;5029911;28;19925;-72
2023/09/01 09:02:40;;;;;;;;;;;17.70;99.90;;;;;;5031939;28;19929;-71
2023/09/01 09:05:21;;;;;;;;;;;17.80;99.90;;;;;;5034639;28;20007;-71
2023/09/01 09:07:57;;;;;;;;;;;17.90;99.90;;;;;;5036871;28;19933;-70
2023/09/01 09:10:32;;;;;;;;;;;17.90;99.90;;;;;;5037902;28;19925;-70
2023/09/01 09:13:00;;;;;;;;;;;18.00;99.90;;;;;;5027117;28;20414;-70
2023/09/01 09:15:28;;;;;;;;;;;18.10;99.90;;;;;;5033896;28;20418;-69
2023/09/01 09:17:56;;;;;;;;;;;18.20;99.90;;;;;;5033331;28;19983;-71
2023/09/01 09:20:36;;;;;;;;;;;18.30;99.90;;;;;;5033968;28;19925;-70
2023/09/01 09:23:03;;;;;;;;;;;18.30;99.90;;;;;;5027226;28;20392;-71
2023/09/01 09:25:32;;;;;;;;;;;18.30;99.90;;;;;;5033702;28;19925;-72
2023/09/01 09:28:01;;;;;;;;;;;18.20;99.90;;;;;;5033801;28;20396;-71
2023/09/01 09:30:29;;;;;;;;;;;18.10;99.90;;;;;;5033543;28;19925;-70
2023/09/01 09:33:03;;;;;;;;;;;18.20;99.90;;;;;;5034138;28;19929;-70
2023/09/01 09:35:33;;;;;;;;;;;18.20;99.90;;;;;;5028259;28;20407;-70
2023/09/01 09:38:02;;;;;;;;;;;18.20;99.90;;;;;;5038075;28;19925;-70
2023/09/01 09:40:30;;;;;;;;;;;18.20;99.90;;;;;;5036459;28;20364;-70
2023/09/01 09:42:59;;;;;;;;;;;18.20;99.90;;;;;;5033467;28;19928;-71
2023/09/01 09:45:28;;;;;;;;;;;18.20;99.90;;;;;;5033605;28;20388;-71
2023/09/01 09:48:00;;;;;;;;;;;18.30;99.90;;;;;;5025585;28;19929;-70
2023/09/01 09:50:29;;;;;;;;;;;18.30;99.90;;;;;;5029715;28;20023;-71
2023/09/01 09:53:02;;;;;;;;;;;18.40;99.90;;;;;;5025309;28;19933;-70
2023/09/01 09:55:31;;;;;;;;;;;18.40;99.90;;;;;;5033472;28;20024;-70
2023/09/01 09:58:04;;;;;;;;;;;18.40;99.90;;;;;;5041140;28;19932;-71
2023/09/01 10:00:32;;;;;;;;;;;18.40;99.90;;;;;;5033033;28;19925;-70
2023/09/01 10:03:01;;;;;;;;;;;18.50;99.90;;;;;;5033073;28;19979;-71
2023/09/01 10:05:30;;;;;;;;;;;18.60;99.90;;;;;;5031474;28;19925;-71
2023/09/01 10:07:58;;;;;;;;;;;18.70;99.90;;;;;;5024398;28;20434;-72
2023/09/01 10:10:27;;;;;;;;;;;18.80;99.90;;;;;;5033093;28;19932;-71
2023/09/01 10:12:55;;;;;;;;;;;18.80;99.90;;;;;;5032751;28;20327;-70
2023/09/01 10:15:25;;;;;;;;;;;19.00;99.90;;;;;;5032414;28;19925;-70
2023/09/01 10:17:53;;;;;;;;;;;19.00;99.90;;;;;;5032398;28;19944;-71
2023/09/01 10:20:21;;;;;;;;;;;19.10;99.90;;;;;;5032634;28;19925;-70
2023/09/01 10:22:49;;;;;;;;;;;19.00;99.90;;;;;;5031849;28;19925;-71
2023/09/01 10:25:17;;;;;;;;;;;19.00;99.90;;;;;;5032968;28;19936;-70
2023/09/01 10:28:06;;;;;;;;;;;19.10;99.90;;;;;;5032654;28;20380;-71
2023/09/01 10:30:34;;;;;;;;;;;19.10;99.90;;;;;;5032787;28;19929;-71
2023/09/01 10:33:04;;;;;;;;;;;19.10;99.90;;;;;;5032558;28;19925;-69
2023/09/01 10:35:37;;;;;;;;;;;19.20;99.90;;;;;;5032645;28;19961;-70
2023/09/01 10:38:12;;;;;;;;;;;19.10;99.90;;;;;;5031914;28;19929;-70
2023/09/01 10:40:44;;;;;;;;;;;19.30;99.90;;;;;;5032125;28;19931;-70
2023/09/01 10:43:15;;;;;;;;;;;19.40;99.90;;;;;;5032390;28;19932;-70
2023/09/01 10:46:03;;;;;;;;;;;19.50;99.90;;;;;;5032390;28;20312;-70
2023/09/01 10:48:46;;;;;;;;;;;19.70;99.90;;;;;;5032387;28;19925;-70
2023/09/01 10:51:17;;;;;;;;;;;19.80;99.90;;;;;;5025778;28;19929;-68
2023/09/01 10:53:45;;;;;;;;;;;19.90;99.90;;;;;;5031448;28;19925;-70
2023/09/01 10:56:14;;;;;;;;;;;19.90;99.90;;;;;;5026598;28;19925;-70
2023/09/01 10:58:50;;;;;;;;;;;19.90;99.90;;;;;;5032112;28;19955;-70
2023/09/01 11:01:28;;;;;;;;;;;20.00;99.90;;;;;;5031968;28;20323;-70
2023/09/01 11:03:57;;;;;;;;;;;19.90;99.90;;;;;;5031987;28;19933;-70
2023/09/01 11:06:24;;;;;;;;;;;20.00;99.90;;;;;;5032033;28;19932;-70
2023/09/01 11:09:01;;;;;;;;;;;20.00;99.90;;;;;;5039030;28;19925;-70
2023/09/01 11:11:29;;;;;;;;;;;20.00;99.90;;;;;;5031889;28;19925;-70
2023/09/01 11:14:01;;;;;;;;;;;19.90;99.90;;;;;;5031730;28;19933;-71
2023/09/01 11:16:29;;;;;;;;;;;19.90;99.90;;;;;;5032108;28;19925;-70
2023/09/01 11:19:00;;;;;;;;;;;19.60;99.90;;;;;;5029313;28;19936;-71
2023/09/01 11:21:28;;;;;;;;;;;19.50;99.90;;;;;;5031857;28;19929;-71
2023/09/01 11:23:57;;;;;;;;;;;19.40;99.90;;;;;;5040048;28;19929;-70
2023/09/01 11:26:25;;;;;;;;;;;19.30;99.90;;;;;;5030821;28;19929;-71
2023/09/01 11:28:56;;;;;;;;;;;19.20;99.90;;;;;;5030893;28;20107;-72
2023/09/01 11:31:36;;;;;;;;;;;19.00;99.90;;;;;;5031326;28;20375;-71
2023/09/01 11:34:04;;;;;;;;;;;18.90;99.90;;;;;;5023759;28;19925;-71
2023/09/01 11:36:32;;;;;;;;;;;18.90;99.90;;;;;;5032491;28;20335;-71
2023/09/01 11:39:00;;;;;;;;;;;19.00;99.90;;;;;;5039807;28;20308;-71
2023/09/01 11:41:28;;;;;;;;;;;19.10;99.90;;;;;;5040029;28;20387;-71
2023/09/01 11:43:56;;;;;;;;;;;19.30;99.90;;;;;;5039926;28;19974;-71
2023/09/01 11:46:32;;;;;;;;;;;19.40;99.90;;;;;;5031879;28;19925;-71
2023/09/01 11:49:00;;;;;;;;;;;19.60;99.90;;;;;;5034484;28;20067;-71
2023/09/01 11:51:30;;;;;;;;;;;19.60;99.90;;;;;;5036374;28;19947;-72
2023/09/01 11:53:58;;;;;;;;;;;19.60;99.90;;;;;;5039652;28;19929;-72
2023/09/01 11:56:26;;;;;;;;;;;19.70;99.90;;;;;;5031736;28;20391;-71
2023/09/01 11:58:55;;;;;;;;;;;19.80;99.90;;;;;;5031448;28;19932;-72
2023/09/01 12:01:24;;;;;;;;;;;19.80;99.90;;;;;;5031127;28;19932;-71
2023/09/01 12:03:54;;;;;;;;;;;19.90;99.90;;;;;;5031101;28;19925;-72
2023/09/01 12:06:22;;;;;;;;;;;20.10;99.90;;;;;;5031341;28;19995;-71
2023/09/01 12:08:51;;;;;;;;;;;20.20;99.90;;;;;;5039886;28;19935;-71
2023/09/01 12:11:19;;;;;;;;;;;20.20;99.90;;;;;;5030910;28;19925;-70
2023/09/01 12:13:50;;;;;;;;;;;20.10;99.90;;;;;;5027651;28;19925;-70
2023/09/01 12:16:21;;;;;;;;;;;20.00;99.90;;;;;;5031318;28;19926;-70
2023/09/01 12:18:49;;;;;;;;;;;20.00;99.90;;;;;;5031119;28;19925;-70
2023/09/01 12:21:18;;;;;;;;;;;20.00;99.90;;;;;;5031230;28;20388;-70
2023/09/01 12:23:47;;;;;;;;;;;20.10;99.90;;;;;;5039398;28;19955;-70
2023/09/01 12:26:15;;;;;;;;;;;20.00;99.90;;;;;;5031286;28;20089;-70
2023/09/01 12:28:44;;;;;;;;;;;20.00;99.90;;;;;;5031171;28;19925;-71
2023/09/01 12:31:12;;;;;;;;;;;20.20;99.90;;;;;;5031236;28;19926;-70
2023/09/01 12:33:40;;;;;;;;;;;20.40;99.90;;;;;;5024372;28;19972;-70
2023/09/01 12:36:09;;;;;;;;;;;20.60;99.90;;;;;;5030855;28;19965;-70
2023/09/01 12:38:38;;;;;;;;;;;20.90;99.90;;;;;;5041506;28;19925;-70
2023/09/01 12:41:06;;;;;;;;;;;21.10;99.90;;;;;;5038051;28;20355;-68
2023/09/01 12:43:37;;;;;;;;;;;21.30;99.90;;;;;;5039611;28;20296;-70
2023/09/01 12:46:05;;;;;;;;;;;21.90;99.90;;;;;;5035097;28;19933;-70
2023/09/01 12:48:33;;;;;;;;;;;22.30;99.90;;;;;;5034075;28;19980;-70
2023/09/01 12:51:01;;;;;;;;;;;22.30;99.90;;;;;;5034482;28;19933;-70
2023/09/01 12:53:29;;;;;;;;;;;22.10;99.90;;;;;;5034650;28;19931;-69
2023/09/01 12:56:00;;;;;;;;;;;21.80;99.90;;;;;;5034216;28;20338;-70
2023/09/01 12:58:28;;;;;;;;;;;21.70;99.90;;;;;;5034527;28;19954;-69
2023/09/01 13:00:57;;;;;;;;;;;21.90;99.90;;;;;;5033459;28;19936;-68
2023/09/01 13:03:24;;;;;;;;;;;22.20;99.90;;;;;;5034450;28;19971;-70
2023/09/01 13:05:54;;;;;;;;;;;22.50;99.90;;;;;;5033967;28;19936;-70
2023/09/01 13:08:21;;;;;;;;;;;22.60;99.90;;;;;;5038640;28;19925;-70
2023/09/01 13:10:49;;;;;;;;;;;22.80;99.90;;;;;;5037263;28;19925;-71
2023/09/01 13:13:20;;;;;;;;;;;23.50;99.90;;;;;;5034185;28;19956;-70
2023/09/01 13:15:51;;;;;;;;;;;23.90;99.90;;;;;;5033259;28;19971;-68
2023/09/01 13:18:19;;;;;;;;;;;23.80;99.90;;;;;;5034218;28;19976;-71
2023/09/01 13:20:46;;;;;;;;;;;23.60;99.90;;;;;;5034330;28;20035;-70
2023/09/01 13:23:14;;;;;;;;;;;23.20;99.90;;;;;;5033904;28;19974;-70
2023/09/01 13:25:42;;;;;;;;;;;23.00;99.90;;;;;;5034311;28;20285;-71
2023/09/01 13:28:10;;;;;;;;;;;22.50;99.90;;;;;;5033874;28;19941;-70
2023/09/01 13:30:39;;;;;;;;;;;22.10;99.90;;;;;;5033951;28;19925;-70
2023/09/01 13:33:07;;;;;;;;;;;21.80;99.90;;;;;;5033702;28;19925;-71
2023/09/01 13:35:35;;;;;;;;;;;21.50;99.90;;;;;;5033394;28;19975;-71
2023/09/01 13:38:03;;;;;;;;;;;21.20;99.90;;;;;;5027843;28;20402;-71
2023/09/01 13:40:31;;;;;;;;;;;21.10;99.90;;;;;;5039487;28;19947;-72
2023/09/01 13:42:59;;;;;;;;;;;20.90;99.90;;;;;;5043896;28;19929;-70
2023/09/01 13:45:27;;;;;;;;;;;20.80;99.90;;;;;;5033821;28;20280;-70
2023/09/01 13:47:56;;;;;;;;;;;20.80;99.90;;;;;;5032784;28;19926;-71
2023/09/01 13:50:23;;;;;;;;;;;20.60;99.90;;;;;;5035528;28;19929;-71
2023/09/01 13:52:52;;;;;;;;;;;20.60;99.90;;;;;;5030519;28;19925;-70
2023/09/01 13:55:20;;;;;;;;;;;20.50;99.90;;;;;;5041320;28;19926;-71
2023/09/01 13:57:48;;;;;;;;;;;20.60;99.90;;;;;;5033392;28;19975;-70
2023/09/01 14:00:16;;;;;;;;;;;20.60;99.90;;;;;;5033293;28;20410;-69
2023/09/01 14:02:43;;;;;;;;;;;20.70;99.90;;;;;;5033264;28;20035;-71
2023/09/01 14:05:13;;;;;;;;;;;20.70;99.90;;;;;;5033191;28;20418;-70
2023/09/01 14:07:41;;;;;;;;;;;20.90;99.90;;;;;;5038896;28;20453;-69
2023/09/01 14:10:08;;;;;;;;;;;21.10;99.90;;;;;;5042734;28;19932;-71
2023/09/01 14:12:36;;;;;;;;;;;21.20;99.90;;;;;;5033191;28;20421;-70
2023/09/01 14:15:04;;;;;;;;;;;21.20;99.90;;;;;;5033069;28;19940;-70
2023/09/01 14:17:32;;;;;;;;;;;21.30;99.90;;;;;;5033193;28;19933;-71
2023/09/01 14:20:00;;;;;;;;;;;21.20;99.90;;;;;;5033298;28;19960;-70
2023/09/01 14:22:30;;;;;;;;;;;21.10;99.90;;;;;;5020106;28;20330;-70
2023/09/01 14:24:58;;;;;;;;;;;21.10;99.90;;;;;;5035850;28;19925;-70
2023/09/01 14:27:26;;;;;;;;;;;21.00;99.90;;;;;;5024101;28;19925;-71